createdAt,value
2018-03-30T00:01:56.487Z,21.52
2018-03-30T00:04:23.359Z,21.20
2018-03-30T00:06:50.233Z,19.17
2018-03-30T00:09:23.192Z,18.42
2018-03-30T00:11:50.006Z,19.85
2018-03-30T00:14:16.884Z,17.62
2018-03-30T00:16:43.736Z,17.00
2018-03-30T00:19:10.834Z,15.63
2018-03-30T00:21:37.657Z,12.93
2018-03-30T00:24:04.475Z,10.48
2018-03-30T00:26:31.342Z,9.67
2018-03-30T00:28:58.158Z,10.15
2018-03-30T00:31:25.022Z,11.00
2018-03-30T00:33:52.104Z,9.88
2018-03-30T00:36:18.948Z,9.63
2018-03-30T00:38:45.996Z,8.90
2018-03-30T00:41:12.809Z,9.93
2018-03-30T00:43:39.677Z,13.60
2018-03-30T00:46:06.528Z,10.77
2018-03-30T00:48:33.671Z,12.45
2018-03-30T00:51:00.829Z,10.25
2018-03-30T00:53:33.496Z,10.13
2018-03-30T00:56:00.655Z,12.10
2018-03-30T00:58:27.810Z,12.27
2018-03-30T01:00:54.620Z,11.30
2018-03-30T01:03:21.809Z,17.30
2018-03-30T01:05:48.656Z,13.32
2018-03-30T01:08:15.792Z,14.87
2018-03-30T01:10:42.939Z,15.07
2018-03-30T01:13:10.096Z,14.85
2018-03-30T01:15:36.931Z,14.00
2018-03-30T01:18:04.092Z,14.75
2018-03-30T01:20:30.938Z,14.23
2018-03-30T01:22:58.079Z,12.60
2018-03-30T01:25:25.232Z,12.68
2018-03-30T01:27:52.108Z,14.05
2018-03-30T01:30:18.934Z,12.60
2018-03-30T01:32:46.072Z,12.65
2018-03-30T01:35:12.904Z,17.25
2018-03-30T01:37:39.747Z,12.95
2018-03-30T01:40:06.601Z,13.68
2018-03-30T01:42:33.431Z,13.07
2018-03-30T01:45:00.313Z,13.68
2018-03-30T01:47:27.435Z,12.82
2018-03-30T01:49:54.583Z,14.27
2018-03-30T01:52:21.450Z,15.23
2018-03-30T01:54:48.320Z,14.63
2018-03-30T01:57:15.214Z,13.02
2018-03-30T01:59:42.084Z,12.75
2018-03-30T02:02:08.899Z,14.30
2018-03-30T02:04:35.760Z,13.23
2018-03-30T02:07:02.634Z,12.50
2018-03-30T02:09:29.505Z,11.25
2018-03-30T02:11:56.688Z,10.73
2018-03-30T02:14:23.536Z,12.02
2018-03-30T02:16:50.389Z,9.07
2018-03-30T02:19:17.232Z,8.90
2018-03-30T02:21:44.079Z,12.27
2018-03-30T02:24:10.883Z,9.90
2018-03-30T02:26:37.703Z,10.43
2018-03-30T02:29:04.561Z,8.13
2018-03-30T02:31:31.749Z,10.15
2018-03-30T02:33:58.620Z,9.48
2018-03-30T02:36:25.473Z,9.30
2018-03-30T02:38:52.577Z,10.32
2018-03-30T02:41:19.451Z,9.82
2018-03-30T02:43:46.272Z,9.63
2018-03-30T02:46:13.416Z,8.88
2018-03-30T02:48:40.456Z,8.98
2018-03-30T02:51:07.267Z,7.80
2018-03-30T02:53:34.088Z,7.05
2018-03-30T02:56:00.926Z,7.55
2018-03-30T02:58:27.797Z,6.10
2018-03-30T03:00:54.612Z,6.03
2018-03-30T03:03:21.472Z,6.32
2018-03-30T03:05:48.336Z,6.05
2018-03-30T03:08:15.511Z,6.95
2018-03-30T03:10:42.355Z,5.60
2018-03-30T03:13:09.204Z,7.35
2018-03-30T03:15:36.040Z,5.87
2018-03-30T03:18:03.197Z,6.32
2018-03-30T03:20:30.339Z,6.78
2018-03-30T03:22:57.167Z,6.90
2018-03-30T03:25:24.231Z,7.80
2018-03-30T03:27:51.382Z,6.90
2018-03-30T03:30:18.209Z,7.07
2018-03-30T03:32:45.050Z,7.00
2018-03-30T03:35:11.924Z,6.37
2018-03-30T03:37:38.739Z,7.43
2018-03-30T03:40:05.551Z,7.25
2018-03-30T03:42:32.758Z,7.60
2018-03-30T03:44:59.570Z,7.68
2018-03-30T03:47:26.436Z,7.65
2018-03-30T03:49:53.284Z,7.82
2018-03-30T03:52:20.099Z,7.95
2018-03-30T03:54:47.277Z,7.62
2018-03-30T03:57:14.319Z,9.52
2018-03-30T03:59:41.488Z,8.27
2018-03-30T04:02:08.324Z,8.80
2018-03-30T04:04:35.186Z,9.40
2018-03-30T04:07:02.049Z,7.85
2018-03-30T04:09:29.153Z,7.80
2018-03-30T04:11:55.989Z,10.73
2018-03-30T04:14:22.828Z,10.95
2018-03-30T04:16:49.670Z,8.45
2018-03-30T04:19:16.726Z,9.00
2018-03-30T04:21:43.540Z,7.18
2018-03-30T04:24:10.439Z,9.05
2018-03-30T04:26:37.270Z,7.25
2018-03-30T04:29:04.096Z,7.72
2018-03-30T04:31:31.256Z,6.70
2018-03-30T04:33:58.080Z,11.85
2018-03-30T04:36:25.248Z,7.15
2018-03-30T04:38:52.340Z,7.68
2018-03-30T04:41:19.175Z,7.53
2018-03-30T04:43:46.231Z,8.80
2018-03-30T04:46:13.089Z,7.40
2018-03-30T04:48:40.178Z,6.43
2018-03-30T04:51:07.035Z,6.60
2018-03-30T04:53:33.846Z,6.43
2018-03-30T04:56:00.672Z,7.22
2018-03-30T04:58:27.521Z,7.00
2018-03-30T05:00:54.390Z,6.00
2018-03-30T05:03:21.438Z,6.87
2018-03-30T05:05:48.305Z,6.90
2018-03-30T05:08:15.440Z,6.13
2018-03-30T05:10:42.248Z,5.95
2018-03-30T05:13:09.068Z,6.95
2018-03-30T05:15:36.171Z,6.00
2018-03-30T05:18:02.985Z,6.10
2018-03-30T05:20:30.063Z,6.70
2018-03-30T05:22:57.217Z,6.90
2018-03-30T05:25:24.104Z,6.30
2018-03-30T05:27:50.963Z,6.20
2018-03-30T05:30:17.849Z,9.93
2018-03-30T05:32:44.993Z,8.07
2018-03-30T05:35:11.824Z,6.78
2018-03-30T05:37:38.987Z,8.50
2018-03-30T05:40:05.812Z,8.23
2018-03-30T05:42:32.984Z,6.70
2018-03-30T05:44:59.796Z,7.37
2018-03-30T05:47:26.665Z,6.40
2018-03-30T05:49:53.480Z,12.60
2018-03-30T05:52:20.562Z,8.93
2018-03-30T05:54:47.372Z,7.68
2018-03-30T05:57:14.199Z,6.90
2018-03-30T05:59:41.027Z,6.70
2018-03-30T06:02:08.145Z,6.95
2018-03-30T06:04:35.289Z,6.43
2018-03-30T06:07:02.142Z,6.50
2018-03-30T06:09:28.977Z,8.27
2018-03-30T06:11:55.813Z,7.60
2018-03-30T06:14:22.869Z,8.90
2018-03-30T06:16:50.024Z,10.20
2018-03-30T06:19:17.174Z,6.93
2018-03-30T06:21:44.033Z,7.85
2018-03-30T06:24:10.880Z,7.60
2018-03-30T06:26:37.711Z,7.95
2018-03-30T06:29:04.519Z,9.23
2018-03-30T06:31:31.319Z,9.23
2018-03-30T06:33:58.215Z,10.20
2018-03-30T06:36:25.031Z,9.00
2018-03-30T06:38:51.900Z,8.73
2018-03-30T06:41:18.713Z,8.25
2018-03-30T06:43:45.813Z,8.35
2018-03-30T06:46:12.670Z,7.80
2018-03-30T06:48:39.804Z,7.47
2018-03-30T06:51:06.647Z,7.80
2018-03-30T06:53:33.690Z,8.00
2018-03-30T06:56:00.554Z,7.70
2018-03-30T06:58:27.401Z,8.63
2018-03-30T07:00:54.236Z,7.50
2018-03-30T07:03:21.362Z,8.00
2018-03-30T07:05:48.179Z,8.10
2018-03-30T07:08:14.993Z,8.88
2018-03-30T07:10:41.813Z,9.02
2018-03-30T07:13:08.594Z,9.68
2018-03-30T07:15:35.431Z,9.30
2018-03-30T07:18:02.214Z,10.02
2018-03-30T07:20:29.013Z,10.23
2018-03-30T07:22:55.838Z,8.23
2018-03-30T07:25:22.634Z,7.35
2018-03-30T07:27:49.446Z,8.00
2018-03-30T07:30:16.251Z,7.75
2018-03-30T07:32:43.029Z,7.80
2018-03-30T07:35:09.843Z,7.78
2018-03-30T07:37:36.707Z,6.95
2018-03-30T07:40:03.487Z,7.93
2018-03-30T07:42:30.297Z,8.93
2018-03-30T07:44:57.107Z,7.15
2018-03-30T07:47:23.951Z,6.55
2018-03-30T07:49:50.970Z,7.57
2018-03-30T07:52:17.811Z,7.30
2018-03-30T07:54:44.638Z,7.20
2018-03-30T07:57:11.406Z,7.00
2018-03-30T07:59:38.255Z,6.20
2018-03-30T08:02:05.050Z,6.82
2018-03-30T08:04:32.141Z,6.40
2018-03-30T08:06:58.979Z,6.87
2018-03-30T08:09:25.755Z,6.10
2018-03-30T08:11:52.546Z,5.90
2018-03-30T08:14:19.387Z,5.43
2018-03-30T08:16:46.213Z,5.30
2018-03-30T08:19:13.001Z,5.50
2018-03-30T08:21:39.817Z,5.20
2018-03-30T08:24:06.601Z,6.43
2018-03-30T08:26:33.397Z,5.30
2018-03-30T08:29:00.234Z,6.87
2018-03-30T08:31:27.048Z,5.90
2018-03-30T08:33:53.837Z,5.93
2018-03-30T08:36:20.898Z,5.50
2018-03-30T08:38:48.053Z,6.37
2018-03-30T08:41:14.843Z,5.75
2018-03-30T08:43:41.703Z,5.35
2018-03-30T08:46:08.486Z,5.25
2018-03-30T08:48:35.264Z,5.15
2018-03-30T08:51:02.157Z,5.33
2018-03-30T08:53:29.106Z,4.90
2018-03-30T08:55:55.889Z,5.35
2018-03-30T08:58:22.991Z,4.90
2018-03-30T09:00:49.935Z,4.82
2018-03-30T09:03:16.723Z,5.07
2018-03-30T09:05:43.563Z,5.07
2018-03-30T09:08:10.353Z,4.87
2018-03-30T09:10:37.236Z,5.43
2018-03-30T09:13:04.037Z,5.43
2018-03-30T09:15:30.854Z,5.43
2018-03-30T09:17:57.666Z,5.03
2018-03-30T09:20:24.512Z,5.22
2018-03-30T09:22:51.298Z,4.40
2018-03-30T09:25:18.376Z,4.70
2018-03-30T09:27:45.171Z,6.47
2018-03-30T09:30:12.278Z,4.68
2018-03-30T09:32:39.163Z,5.72
2018-03-30T09:35:05.995Z,5.55
2018-03-30T09:37:32.825Z,4.72
2018-03-30T09:39:59.619Z,5.72
2018-03-30T09:42:26.786Z,5.50
2018-03-30T09:44:53.614Z,6.90
2018-03-30T09:47:20.583Z,7.53
2018-03-30T09:49:48.550Z,5.60
2018-03-30T09:52:15.454Z,6.32
2018-03-30T09:54:42.237Z,6.10
2018-03-30T09:57:09.078Z,5.43
2018-03-30T09:59:35.850Z,5.20
2018-03-30T10:02:02.958Z,5.80
2018-03-30T10:04:29.781Z,6.50
2018-03-30T10:06:56.586Z,5.87
2018-03-30T10:09:23.411Z,6.50
2018-03-30T10:11:50.239Z,6.20
2018-03-30T10:14:17.013Z,5.40
2018-03-30T10:16:43.803Z,6.10
2018-03-30T10:19:10.863Z,5.97
2018-03-30T10:21:37.657Z,6.10
2018-03-30T10:24:04.462Z,5.50
2018-03-30T10:26:31.490Z,5.30
2018-03-30T10:28:58.326Z,6.60
2018-03-30T10:31:26.089Z,6.75
2018-03-30T10:33:53.157Z,6.57
2018-03-30T10:36:19.926Z,8.52
2018-03-30T10:38:47.038Z,8.02
2018-03-30T10:41:13.888Z,6.22
2018-03-30T10:43:40.929Z,5.32
2018-03-30T10:46:07.978Z,6.68
2018-03-30T10:48:35.095Z,8.52
2018-03-30T10:51:02.186Z,4.90
2018-03-30T10:53:28.969Z,4.95
2018-03-30T10:55:56.069Z,5.12
2018-03-30T10:58:23.123Z,5.15
2018-03-30T11:00:49.903Z,5.80
2018-03-30T11:03:16.742Z,5.60
2018-03-30T11:05:43.518Z,5.80
2018-03-30T11:08:10.676Z,5.68
2018-03-30T11:10:37.517Z,5.40
2018-03-30T11:13:04.289Z,6.10
2018-03-30T11:15:31.066Z,5.57
2018-03-30T11:17:57.951Z,5.53
2018-03-30T11:20:24.722Z,5.20
2018-03-30T11:22:51.866Z,4.90
2018-03-30T11:25:18.706Z,5.95
2018-03-30T11:27:45.744Z,5.47
2018-03-30T11:30:12.796Z,6.85
2018-03-30T11:32:39.951Z,6.20
2018-03-30T11:35:06.759Z,6.45
2018-03-30T11:37:33.840Z,5.47
2018-03-30T11:40:00.682Z,5.90
2018-03-30T11:42:27.533Z,6.70
2018-03-30T11:44:54.483Z,5.90
2018-03-30T11:47:21.371Z,6.10
2018-03-30T11:49:48.232Z,5.80
2018-03-30T11:52:15.052Z,6.22
2018-03-30T11:54:42.161Z,6.00
2018-03-30T11:57:08.959Z,7.12
2018-03-30T11:59:35.762Z,6.47
2018-03-30T12:02:02.543Z,6.50
2018-03-30T12:04:29.379Z,7.12
2018-03-30T12:06:56.149Z,5.68
2018-03-30T12:09:23.327Z,5.50
2018-03-30T12:11:50.127Z,5.50
2018-03-30T12:14:16.921Z,6.20
2018-03-30T12:16:43.742Z,5.82
2018-03-30T12:19:10.786Z,5.37
2018-03-30T12:21:37.944Z,5.83
2018-03-30T12:24:04.733Z,5.10
2018-03-30T12:26:31.549Z,5.95
2018-03-30T12:28:58.375Z,6.15
2018-03-30T12:31:25.184Z,5.50
2018-03-30T12:33:51.991Z,5.65
2018-03-30T12:36:18.791Z,5.78
2018-03-30T12:38:45.578Z,5.80
2018-03-30T12:41:12.423Z,7.10
2018-03-30T12:43:39.227Z,6.95
2018-03-30T12:46:06.375Z,5.47
2018-03-30T12:48:33.183Z,5.43
2018-03-30T12:51:00.266Z,7.53
2018-03-30T12:53:27.270Z,5.40
2018-03-30T12:55:54.066Z,5.47
2018-03-30T12:58:20.864Z,7.53
2018-03-30T13:00:47.819Z,6.83
2018-03-30T13:03:14.613Z,7.00
2018-03-30T13:05:41.418Z,5.05
2018-03-30T13:08:08.206Z,6.03
2018-03-30T13:10:35.054Z,5.78
2018-03-30T13:13:02.797Z,5.30
2018-03-30T13:15:29.619Z,6.28
2018-03-30T13:17:56.665Z,4.90
2018-03-30T13:20:23.716Z,6.93
2018-03-30T13:22:50.929Z,4.95
2018-03-30T13:25:17.678Z,4.47
2018-03-30T13:27:44.466Z,4.60
2018-03-30T13:30:11.303Z,5.00
2018-03-30T13:32:38.106Z,4.85
2018-03-30T13:35:04.929Z,6.32
2018-03-30T13:37:31.739Z,6.93
2018-03-30T13:39:58.565Z,6.00
2018-03-30T13:42:25.607Z,4.95
2018-03-30T13:44:52.420Z,4.00
2018-03-30T13:47:19.221Z,4.60
2018-03-30T13:49:46.346Z,4.10
2018-03-30T13:52:19.188Z,4.50
2018-03-30T13:54:46.279Z,4.20
2018-03-30T13:57:14.994Z,4.53
2018-03-30T13:59:42.539Z,5.00
2018-03-30T14:02:11.248Z,5.03
2018-03-30T14:04:48.239Z,4.97
2018-03-30T14:07:20.929Z,4.20
2018-03-30T14:09:47.759Z,5.00
2018-03-30T14:12:31.318Z,9.85
2018-03-30T14:14:58.127Z,16.52
2018-03-30T14:17:25.802Z,13.33
2018-03-30T14:19:53.359Z,9.32
2018-03-30T14:22:21.050Z,10.27
2018-03-30T14:24:48.126Z,9.98
2018-03-30T14:27:24.861Z,9.30
2018-03-30T14:29:52.484Z,5.85
2018-03-30T14:32:19.291Z,4.53
2018-03-30T14:35:06.926Z,4.60
2018-03-30T14:37:33.752Z,7.30
2018-03-30T14:40:10.951Z,9.70
2018-03-30T14:42:38.410Z,8.40
2018-03-30T14:45:06.001Z,9.60
2018-03-30T14:47:32.843Z,4.57
2018-03-30T14:49:59.868Z,5.72
2018-03-30T14:52:26.923Z,5.20
2018-03-30T14:54:56.462Z,7.18
2018-03-30T14:57:33.171Z,6.03
2018-03-30T15:00:10.663Z,10.75
2018-03-30T15:02:38.555Z,9.57
2018-03-30T15:05:15.433Z,5.18
2018-03-30T15:07:48.411Z,4.80
2018-03-30T15:10:21.179Z,6.47
2018-03-30T15:12:48.257Z,8.40
2018-03-30T15:15:16.930Z,7.75
2018-03-30T15:17:48.806Z,6.60
2018-03-30T15:20:18.893Z,6.40
2018-03-30T15:22:50.632Z,5.00
2018-03-30T15:25:23.286Z,4.70
2018-03-30T15:27:51.939Z,7.22
2018-03-30T15:30:37.615Z,5.63
2018-03-30T15:33:10.524Z,9.32
2018-03-30T15:35:37.368Z,7.10
2018-03-30T15:38:04.187Z,9.25
2018-03-30T15:40:31.770Z,7.65
2018-03-30T15:42:59.349Z,7.47
2018-03-30T15:45:36.882Z,8.60
2018-03-30T15:48:03.743Z,8.45
2018-03-30T15:50:30.565Z,9.87
2018-03-30T15:52:57.657Z,11.00
2018-03-30T15:55:24.451Z,11.30
2018-03-30T15:57:51.249Z,11.88
2018-03-30T16:00:19.532Z,11.30
2018-03-30T16:02:47.387Z,9.85
2018-03-30T16:05:15.824Z,8.20
2018-03-30T16:07:45.267Z,8.63
2018-03-30T16:10:13.537Z,9.65
2018-03-30T16:12:42.513Z,10.27
2018-03-30T16:15:14.170Z,10.52
2018-03-30T16:17:43.308Z,10.15
2018-03-30T16:20:12.563Z,13.65
2018-03-30T16:22:44.765Z,12.10
2018-03-30T16:25:12.153Z,9.80
2018-03-30T16:27:40.422Z,12.10
2018-03-30T16:30:09.134Z,11.77
2018-03-30T16:32:38.302Z,12.10
2018-03-30T16:35:05.854Z,9.18
2018-03-30T16:37:33.556Z,11.80
2018-03-30T16:40:00.319Z,13.20
2018-03-30T16:42:26.741Z,16.60
2018-03-30T16:44:53.161Z,15.35
2018-03-30T16:47:19.868Z,13.98
2018-03-30T16:49:46.437Z,11.60
2018-03-30T16:52:14.085Z,10.30
2018-03-30T16:54:41.554Z,13.80
2018-03-30T16:57:07.996Z,11.93
2018-03-30T16:59:34.556Z,12.37
2018-03-30T17:02:01.480Z,12.37
2018-03-30T17:04:28.025Z,11.52
2018-03-30T17:06:54.372Z,12.30
2018-03-30T17:09:20.771Z,11.93
2018-03-30T17:11:47.143Z,11.70
2018-03-30T17:14:13.516Z,11.50
2018-03-30T17:16:39.878Z,8.98
2018-03-30T17:19:06.462Z,9.02
2018-03-30T17:21:32.842Z,9.90
2018-03-30T17:23:59.250Z,9.90
2018-03-30T17:26:25.627Z,9.30
2018-03-30T17:28:51.992Z,9.40
2018-03-30T17:31:18.406Z,10.95
2018-03-30T17:33:45.063Z,10.80
2018-03-30T17:36:11.453Z,11.95
2018-03-30T17:38:37.903Z,15.98
2018-03-30T17:41:04.323Z,11.65
2018-03-30T17:43:30.719Z,10.40
2018-03-30T17:45:57.094Z,22.58
2018-03-30T17:48:23.438Z,10.60
2018-03-30T17:50:50.106Z,12.85
2018-03-30T17:53:16.489Z,13.05
2018-03-30T17:55:43.065Z,10.90
2018-03-30T17:58:09.420Z,10.07
2018-03-30T18:00:35.790Z,11.65
2018-03-30T18:03:02.572Z,9.30
2018-03-30T18:05:28.902Z,9.50
2018-03-30T18:07:55.308Z,10.57
2018-03-30T18:10:21.994Z,10.32
2018-03-30T18:12:48.354Z,9.88
2018-03-30T18:15:15.052Z,10.82
2018-03-30T18:17:41.682Z,13.25
2018-03-30T18:20:08.326Z,11.57
2018-03-30T18:22:35.067Z,14.60
2018-03-30T18:25:01.452Z,13.80
2018-03-30T18:27:28.068Z,14.70
2018-03-30T18:29:54.442Z,13.57
2018-03-30T18:32:20.790Z,11.93
2018-03-30T18:34:47.180Z,12.45
2018-03-30T18:37:13.548Z,12.85
2018-03-30T18:39:39.902Z,13.13
2018-03-30T18:42:06.250Z,11.55
2018-03-30T18:44:32.619Z,10.88
2018-03-30T18:46:58.998Z,13.27
2018-03-30T18:49:25.381Z,10.48
2018-03-30T18:51:52.062Z,11.98
2018-03-30T18:54:18.835Z,12.73
2018-03-30T18:56:45.219Z,11.68
2018-03-30T18:59:11.616Z,11.63
2018-03-30T19:01:37.987Z,10.27
2018-03-30T19:04:04.357Z,12.07
2018-03-30T19:06:31.129Z,11.70
2018-03-30T19:08:57.463Z,10.02
2018-03-30T19:11:23.847Z,11.98
2018-03-30T19:13:50.475Z,9.32
2018-03-30T19:16:16.857Z,10.77
2018-03-30T19:18:43.197Z,9.10
2018-03-30T19:21:09.590Z,9.27
2018-03-30T19:23:36.207Z,10.10
2018-03-30T19:26:02.592Z,9.57
2018-03-30T19:28:28.950Z,10.25
2018-03-30T19:30:55.347Z,8.60
2018-03-30T19:33:21.947Z,9.18
2018-03-30T19:35:48.702Z,10.43
2018-03-30T19:38:15.046Z,8.52
2018-03-30T19:40:41.393Z,9.00
2018-03-30T19:43:07.770Z,8.48
2018-03-30T19:45:34.110Z,8.73
2018-03-30T19:48:00.514Z,10.05
2018-03-30T19:50:26.877Z,8.03
2018-03-30T19:52:53.248Z,9.63
2018-03-30T19:55:19.846Z,8.90
2018-03-30T19:57:46.256Z,10.02
2018-03-30T20:00:12.635Z,10.38
2018-03-30T20:02:39.016Z,10.82
2018-03-30T20:05:05.682Z,8.25
2018-03-30T20:07:32.320Z,8.95
2018-03-30T20:09:58.666Z,8.88
2018-03-30T20:12:25.305Z,7.93
2018-03-30T20:14:51.930Z,9.18
2018-03-30T20:17:18.299Z,9.18
2018-03-30T20:19:45.008Z,9.63
2018-03-30T20:22:11.437Z,8.23
2018-03-30T20:24:37.765Z,8.68
2018-03-30T20:27:04.134Z,7.90
2018-03-30T20:29:30.515Z,10.35
2018-03-30T20:31:57.172Z,8.82
2018-03-30T20:34:23.564Z,10.55
2018-03-30T20:36:49.915Z,9.93
2018-03-30T20:39:16.302Z,12.43
2018-03-30T20:41:43.016Z,10.13
2018-03-30T20:44:09.362Z,10.63
2018-03-30T20:46:35.973Z,9.90
2018-03-30T20:49:02.346Z,12.10
2018-03-30T20:51:28.689Z,10.82
2018-03-30T20:53:55.071Z,15.68
2018-03-30T20:56:21.434Z,13.53
2018-03-30T20:58:48.153Z,12.55
2018-03-30T21:01:14.487Z,12.23
2018-03-30T21:03:41.121Z,12.85
2018-03-30T21:06:07.483Z,12.57
2018-03-30T21:08:34.226Z,11.63
2018-03-30T21:11:00.827Z,8.77
2018-03-30T21:13:27.421Z,11.98
2018-03-30T21:15:53.753Z,9.47
2018-03-30T21:18:20.146Z,9.38
2018-03-30T21:20:46.474Z,9.13
2018-03-30T21:23:12.809Z,8.55
2018-03-30T21:25:39.215Z,7.95
2018-03-30T21:28:05.858Z,8.48
2018-03-30T21:30:32.235Z,7.57
2018-03-30T21:32:58.926Z,8.00
2018-03-30T21:35:25.311Z,8.20
2018-03-30T21:37:51.645Z,7.80
2018-03-30T21:40:18.059Z,8.18
2018-03-30T21:42:44.770Z,8.48
2018-03-30T21:45:11.298Z,7.57
2018-03-30T21:47:37.698Z,8.65
2018-03-30T21:50:04.071Z,11.25
2018-03-30T21:52:30.418Z,7.82
2018-03-30T21:54:57.038Z,7.68
2018-03-30T21:57:23.451Z,7.37
2018-03-30T21:59:49.815Z,7.32
2018-03-30T22:02:16.544Z,7.60
2018-03-30T22:04:43.261Z,6.60
2018-03-30T22:07:09.655Z,6.37
2018-03-30T22:09:36.841Z,7.70
2018-03-30T22:12:03.823Z,6.50
2018-03-30T22:14:30.627Z,7.20
2018-03-30T22:16:57.518Z,6.72
2018-03-30T22:19:24.189Z,6.60
2018-03-30T22:21:51.580Z,7.10
2018-03-30T22:24:18.089Z,7.53
2018-03-30T22:26:44.558Z,7.82
2018-03-30T22:29:10.974Z,6.97
2018-03-30T22:31:37.634Z,7.90
2018-03-30T22:34:04.279Z,6.20
2018-03-30T22:36:30.656Z,9.60
2018-03-30T22:38:57.136Z,6.03
2018-03-30T22:41:23.786Z,6.78
2018-03-30T22:43:50.125Z,6.60
2018-03-30T22:46:16.515Z,7.18
2018-03-30T22:48:43.187Z,8.53
2018-03-30T22:51:09.538Z,7.40
2018-03-30T22:53:35.939Z,7.80
2018-03-30T22:56:02.307Z,6.70
2018-03-30T22:58:28.673Z,7.10
2018-03-30T23:00:55.038Z,7.78
2018-03-30T23:03:21.429Z,7.50
2018-03-30T23:05:47.978Z,6.82
2018-03-30T23:08:14.631Z,6.40
2018-03-30T23:10:41.182Z,7.43
2018-03-30T23:13:07.769Z,6.55
2018-03-30T23:15:34.332Z,6.55
2018-03-30T23:18:01.202Z,6.15
2018-03-30T23:20:27.835Z,7.22
2018-03-30T23:22:54.459Z,6.43
2018-03-30T23:25:21.038Z,7.35
2018-03-30T23:27:47.863Z,6.37
2018-03-30T23:30:14.483Z,6.10
2018-03-30T23:32:41.346Z,7.22
2018-03-30T23:35:08.186Z,6.30
2018-03-30T23:37:35.026Z,6.60
2018-03-30T23:40:01.618Z,7.93
2018-03-30T23:42:28.199Z,5.90
2018-03-30T23:44:54.819Z,8.20
2018-03-30T23:47:21.389Z,6.25
2018-03-30T23:49:47.968Z,6.37
2018-03-30T23:52:14.567Z,6.12
2018-03-30T23:54:41.109Z,7.57
2018-03-30T23:57:07.930Z,6.80
2018-03-30T23:59:34.509Z,5.65
